createdAt,value
2018-06-14T00:02:09.842Z,4.57
2018-06-14T00:04:38.192Z,6.93
2018-06-14T00:07:06.520Z,5.97
2018-06-14T00:09:34.548Z,5.53
2018-06-14T00:12:02.830Z,4.50
2018-06-14T00:14:31.140Z,6.80
2018-06-14T00:16:59.164Z,4.63
2018-06-14T00:19:27.476Z,4.63
2018-06-14T00:21:55.525Z,5.67
2018-06-14T00:24:23.842Z,7.00
2018-06-14T00:26:52.158Z,8.17
2018-06-14T00:29:20.464Z,6.43
2018-06-14T00:31:48.758Z,6.03
2018-06-14T00:34:17.086Z,5.63
2018-06-14T00:36:45.368Z,5.30
2018-06-14T00:39:13.694Z,5.33
2018-06-14T00:41:41.745Z,6.57
2018-06-14T00:44:10.051Z,5.00
2018-06-14T00:46:38.366Z,6.03
2018-06-14T00:49:06.622Z,5.93
2018-06-14T00:51:34.948Z,5.53
2018-06-14T00:54:03.234Z,5.93
2018-06-14T00:56:41.690Z,7.10
2018-06-14T00:59:10.020Z,10.73
2018-06-14T01:01:38.324Z,6.57
2018-06-14T01:04:06.619Z,6.23
2018-06-14T01:06:34.924Z,6.37
2018-06-14T01:09:03.247Z,7.43
2018-06-14T01:11:31.560Z,6.20
2018-06-14T01:13:59.853Z,8.80
2018-06-14T01:16:28.126Z,6.10
2018-06-14T01:18:56.460Z,8.30
2018-06-14T01:21:24.775Z,7.27
2018-06-14T01:23:53.082Z,6.40
2018-06-14T01:26:21.417Z,6.60
2018-06-14T01:28:49.712Z,6.63
2018-06-14T01:31:18.057Z,6.70
2018-06-14T01:33:46.350Z,6.17
2018-06-14T01:36:14.644Z,8.57
2018-06-14T01:38:42.972Z,6.83
2018-06-14T01:41:11.280Z,8.80
2018-06-14T01:43:39.556Z,7.33
2018-06-14T01:46:07.852Z,9.17
2018-06-14T01:48:36.151Z,9.63
2018-06-14T01:51:04.452Z,8.73
2018-06-14T01:53:32.766Z,9.30
2018-06-14T01:56:01.048Z,9.37
2018-06-14T01:58:30.008Z,8.60
2018-06-14T02:00:59.683Z,11.33
2018-06-14T02:03:27.958Z,7.50
2018-06-14T02:05:56.257Z,7.87
2018-06-14T02:08:24.303Z,7.80
2018-06-14T02:10:52.606Z,7.67
2018-06-14T02:13:20.922Z,8.63
2018-06-14T02:15:49.204Z,7.93
2018-06-14T02:18:17.499Z,7.50
2018-06-14T02:20:45.794Z,8.83
2018-06-14T02:23:14.115Z,9.60
2018-06-14T02:25:42.412Z,7.93
2018-06-14T02:28:10.712Z,8.40
2018-06-14T02:30:39.030Z,8.33
2018-06-14T02:33:07.338Z,7.73
2018-06-14T02:35:35.626Z,10.50
2018-06-14T02:38:03.924Z,9.20
2018-06-14T02:40:32.239Z,8.40
2018-06-14T02:43:00.538Z,12.60
2018-06-14T02:45:28.890Z,7.83
2018-06-14T02:47:57.194Z,7.33
2018-06-14T02:50:25.480Z,9.17
2018-06-14T02:52:53.837Z,9.80
2018-06-14T02:55:22.122Z,10.77
2018-06-14T02:57:50.454Z,10.03
2018-06-14T03:00:18.832Z,9.87
2018-06-14T03:02:47.132Z,8.60
2018-06-14T03:05:15.532Z,8.80
2018-06-14T03:07:43.828Z,8.97
2018-06-14T03:10:12.156Z,9.43
2018-06-14T03:12:40.459Z,9.07
2018-06-14T03:15:08.752Z,10.50
2018-06-14T03:17:37.050Z,11.53
2018-06-14T03:20:05.416Z,9.27
2018-06-14T03:22:33.740Z,8.77
2018-06-14T03:25:01.786Z,10.67
2018-06-14T03:27:30.072Z,9.37
2018-06-14T03:29:58.391Z,12.67
2018-06-14T03:32:26.677Z,8.93
2018-06-14T03:34:55.017Z,10.30
2018-06-14T03:37:23.325Z,11.20
2018-06-14T03:39:51.637Z,8.80
2018-06-14T03:42:20.020Z,8.87
2018-06-14T03:44:49.233Z,9.53
2018-06-14T03:47:17.569Z,9.13
2018-06-14T03:49:45.883Z,9.73
2018-06-14T03:52:14.250Z,8.30
2018-06-14T03:54:42.325Z,9.43
2018-06-14T03:57:10.628Z,10.13
2018-06-14T03:59:38.969Z,8.47
2018-06-14T04:02:07.266Z,9.13
2018-06-14T04:04:35.587Z,8.43
2018-06-14T04:07:03.909Z,9.73
2018-06-14T04:09:32.258Z,8.50
2018-06-14T04:12:00.588Z,7.80
2018-06-14T04:14:28.887Z,11.27
2018-06-14T04:16:57.169Z,10.73
2018-06-14T04:19:25.471Z,10.53
2018-06-14T04:21:53.795Z,8.80
2018-06-14T04:24:22.161Z,8.10
2018-06-14T04:26:50.497Z,8.57
2018-06-14T04:29:18.827Z,8.10
2018-06-14T04:31:47.138Z,8.00
2018-06-14T04:34:15.429Z,9.10
2018-06-14T04:36:43.772Z,10.73
2018-06-14T04:39:12.059Z,9.63
2018-06-14T04:41:40.361Z,8.10
2018-06-14T04:44:08.697Z,11.53
2018-06-14T04:46:37.021Z,8.73
2018-06-14T04:49:05.474Z,7.80
2018-06-14T04:51:39.236Z,9.50
2018-06-14T04:54:07.319Z,8.33
2018-06-14T04:56:35.619Z,11.63
2018-06-14T04:59:03.934Z,7.90
2018-06-14T05:01:32.275Z,9.90
2018-06-14T05:04:00.624Z,10.03
2018-06-14T05:06:28.963Z,8.37
2018-06-14T05:08:57.298Z,10.07
2018-06-14T05:11:25.622Z,8.97
2018-06-14T05:13:53.944Z,8.33
2018-06-14T05:16:22.262Z,9.20
2018-06-14T05:18:50.604Z,8.50
2018-06-14T05:21:18.928Z,9.13
2018-06-14T05:23:47.604Z,9.27
2018-06-14T05:26:15.904Z,9.20
2018-06-14T05:28:44.249Z,10.53
2018-06-14T05:31:12.538Z,9.90
2018-06-14T05:33:40.838Z,9.87
2018-06-14T05:36:09.155Z,12.63
2018-06-14T05:38:37.453Z,11.07
2018-06-14T05:41:05.770Z,8.97
2018-06-14T05:43:34.087Z,9.63
2018-06-14T05:46:02.364Z,9.93
2018-06-14T05:48:30.648Z,8.97
2018-06-14T05:50:58.944Z,12.57
2018-06-14T05:53:27.516Z,8.00
2018-06-14T05:55:55.818Z,7.67
2018-06-14T05:58:24.160Z,8.00
2018-06-14T06:00:52.450Z,8.17
2018-06-14T06:03:20.788Z,10.13
2018-06-14T06:05:49.092Z,8.33
2018-06-14T06:08:17.412Z,7.53
2018-06-14T06:10:45.704Z,7.80
2018-06-14T06:13:14.021Z,8.97
2018-06-14T06:15:42.364Z,8.17
2018-06-14T06:18:10.444Z,7.57
2018-06-14T06:20:38.761Z,10.20
2018-06-14T06:23:07.109Z,9.13
2018-06-14T06:25:35.398Z,8.37
2018-06-14T06:28:03.703Z,8.63
2018-06-14T06:30:32.042Z,8.20
2018-06-14T06:33:00.672Z,7.97
2018-06-14T06:35:28.986Z,10.33
2018-06-14T06:37:57.314Z,9.23
2018-06-14T06:40:25.658Z,8.87
2018-06-14T06:42:53.964Z,8.20
2018-06-14T06:45:22.312Z,9.20
2018-06-14T06:47:50.612Z,10.43
2018-06-14T06:50:18.930Z,7.80
2018-06-14T06:52:47.227Z,7.67
2018-06-14T06:55:15.498Z,8.37
2018-06-14T06:57:43.808Z,10.50
2018-06-14T07:00:12.111Z,8.60
2018-06-14T07:02:40.396Z,9.60
2018-06-14T07:05:08.750Z,8.60
2018-06-14T07:07:37.022Z,11.60
2018-06-14T07:10:05.451Z,8.40
2018-06-14T07:12:33.530Z,11.13
2018-06-14T07:15:01.843Z,8.10
2018-06-14T07:17:30.132Z,7.43
2018-06-14T07:19:58.490Z,10.40
2018-06-14T07:22:26.818Z,10.13
2018-06-14T07:24:55.114Z,13.57
2018-06-14T07:27:23.194Z,9.13
2018-06-14T07:29:51.487Z,9.90
2018-06-14T07:32:19.808Z,9.50
2018-06-14T07:34:48.228Z,7.87
2018-06-14T07:37:16.516Z,8.00
2018-06-14T07:39:44.831Z,10.60
2018-06-14T07:42:13.161Z,8.60
2018-06-14T07:44:41.456Z,9.50
2018-06-14T07:47:09.772Z,9.20
2018-06-14T07:49:38.123Z,9.30
2018-06-14T07:52:06.458Z,9.27
2018-06-14T07:54:34.523Z,9.17
2018-06-14T07:57:02.578Z,10.30
2018-06-14T07:59:30.892Z,8.73
2018-06-14T08:01:59.214Z,9.43
2018-06-14T08:04:27.536Z,11.67
2018-06-14T08:06:55.847Z,10.37
2018-06-14T08:09:24.185Z,9.60
2018-06-14T08:11:52.475Z,9.13
2018-06-14T08:14:20.800Z,9.37
2018-06-14T08:16:49.344Z,9.30
2018-06-14T08:19:17.779Z,10.67
2018-06-14T08:21:46.136Z,7.97
2018-06-14T08:24:14.427Z,8.77
2018-06-14T08:26:42.706Z,10.17
2018-06-14T08:29:11.015Z,8.63
2018-06-14T08:31:39.309Z,14.47
2018-06-14T08:34:07.644Z,10.40
2018-06-14T08:36:35.957Z,9.63
2018-06-14T08:39:06.092Z,10.77
2018-06-14T08:41:34.434Z,10.30
2018-06-14T08:44:02.506Z,9.33
2018-06-14T08:46:30.808Z,10.20
2018-06-14T08:48:59.112Z,10.93
2018-06-14T08:51:27.457Z,10.47
2018-06-14T08:53:55.777Z,9.83
2018-06-14T08:56:24.176Z,9.67
2018-06-14T08:58:52.459Z,10.03
2018-06-14T09:01:20.774Z,9.53
2018-06-14T09:03:49.117Z,9.40
2018-06-14T09:06:17.418Z,12.20
2018-06-14T09:08:45.777Z,8.43
2018-06-14T09:33:51.301Z,9.40
2018-06-14T09:36:19.684Z,7.33
2018-06-14T09:38:48.002Z,6.03
2018-06-14T09:41:16.344Z,7.10
2018-06-14T09:43:44.747Z,7.60
2018-06-14T09:46:13.080Z,6.43
2018-06-14T09:48:41.370Z,6.20
2018-06-14T09:51:09.702Z,5.70
2018-06-14T09:53:38.017Z,5.13
2018-06-14T09:56:06.418Z,7.03
2018-06-14T09:58:34.706Z,7.57
2018-06-14T10:01:03.038Z,6.90
2018-06-14T10:03:31.358Z,5.33
2018-06-14T10:05:59.963Z,5.87
2018-06-14T10:08:28.315Z,5.23
2018-06-14T10:10:56.639Z,6.87
2018-06-14T10:13:24.937Z,6.30
2018-06-14T10:15:53.262Z,4.63
2018-06-14T10:18:21.599Z,7.60
2018-06-14T10:20:49.915Z,7.60
2018-06-14T10:23:18.217Z,5.40
2018-06-14T10:25:46.527Z,6.67
2018-06-14T10:28:14.838Z,6.83
2018-06-14T10:30:43.131Z,6.63
2018-06-14T10:33:11.649Z,9.00
2018-06-14T10:35:39.969Z,6.27
2018-06-14T10:38:08.320Z,6.27
2018-06-14T10:40:36.643Z,5.07
2018-06-14T10:43:06.023Z,7.80
2018-06-14T10:45:34.817Z,6.90
2018-06-14T10:48:03.191Z,8.23
2018-06-14T10:50:31.511Z,6.33
2018-06-14T10:52:59.817Z,6.57
2018-06-14T10:55:28.863Z,7.37
2018-06-14T10:57:57.217Z,6.20
2018-06-14T11:00:25.624Z,13.23
2018-06-14T11:02:54.096Z,5.27
2018-06-14T11:05:22.426Z,6.80
2018-06-14T11:07:50.727Z,6.10
2018-06-14T11:10:19.054Z,5.40
2018-06-14T11:12:47.483Z,4.90
2018-06-14T11:15:15.992Z,4.97
2018-06-14T11:17:44.099Z,8.53
2018-06-14T11:20:12.429Z,5.37
2018-06-14T11:22:40.782Z,6.33
2018-06-14T11:25:09.114Z,6.70
2018-06-14T11:27:37.476Z,5.67
2018-06-14T11:30:05.991Z,4.80
2018-06-14T11:32:34.276Z,11.90
2018-06-14T11:35:02.588Z,5.10
2018-06-14T11:37:30.902Z,5.87
2018-06-14T11:39:59.274Z,7.10
2018-06-14T11:42:27.584Z,5.93
2018-06-14T11:44:56.062Z,5.33
2018-06-14T11:47:24.371Z,6.07
2018-06-14T11:49:52.785Z,6.30
2018-06-14T11:52:21.115Z,9.77
2018-06-14T11:54:49.422Z,7.83
2018-06-14T11:57:17.658Z,6.00
2018-06-14T11:59:53.028Z,5.77
2018-06-14T12:02:22.042Z,6.13
2018-06-14T12:04:50.996Z,6.50
2018-06-14T12:07:19.350Z,7.13
2018-06-14T12:09:47.670Z,7.17
2018-06-14T12:12:16.864Z,8.00
2018-06-14T12:14:45.330Z,7.63
2018-06-14T12:17:13.686Z,7.20
2018-06-14T12:19:41.989Z,7.90
2018-06-14T12:22:10.360Z,8.47
2018-06-14T12:24:38.686Z,9.43
2018-06-14T12:27:06.978Z,8.47
2018-06-14T12:29:35.303Z,7.30
2018-06-14T12:32:03.644Z,8.63
2018-06-14T12:34:31.953Z,8.63
2018-06-14T12:37:00.317Z,7.17
2018-06-14T12:39:28.687Z,7.13
2018-06-14T12:41:57.006Z,8.93
2018-06-14T12:44:25.308Z,9.77
2018-06-14T12:46:53.593Z,7.70
2018-06-14T12:49:21.936Z,7.60
2018-06-14T12:51:50.247Z,8.53
2018-06-14T12:54:18.584Z,7.37
2018-06-14T12:56:46.932Z,9.33
2018-06-14T12:59:15.256Z,8.40
2018-06-14T13:01:43.335Z,7.53
2018-06-14T13:04:11.782Z,6.00
2018-06-14T13:06:40.084Z,6.60
2018-06-14T13:09:09.077Z,7.77
2018-06-14T13:11:37.389Z,6.97
2018-06-14T13:14:05.695Z,6.63
2018-06-14T13:16:34.035Z,6.90
2018-06-14T13:19:02.338Z,7.00
2018-06-14T13:21:30.684Z,7.47
2018-06-14T13:23:59.053Z,9.17
2018-06-14T13:26:27.364Z,8.77
2018-06-14T13:28:56.161Z,10.30
2018-06-14T13:31:24.739Z,6.60
2018-06-14T13:33:53.115Z,6.83
2018-06-14T13:36:21.527Z,9.20
2018-06-14T13:38:49.856Z,7.47
2018-06-14T13:41:18.254Z,7.23
2018-06-14T13:43:47.137Z,13.93
2018-06-14T13:46:15.501Z,5.60
2018-06-14T13:48:43.877Z,6.40
2018-06-14T13:51:12.174Z,5.20
2018-06-14T13:53:40.572Z,6.20
2018-06-14T13:56:08.916Z,7.40
2018-06-14T13:58:37.241Z,6.30
2018-06-14T14:01:05.655Z,5.50
2018-06-14T14:03:33.899Z,8.90
2018-06-14T14:06:01.949Z,5.50
2018-06-14T14:08:30.305Z,7.17
2018-06-14T14:10:58.683Z,7.70
2018-06-14T14:13:27.015Z,6.03
2018-06-14T14:15:55.323Z,8.83
2018-06-14T14:18:23.651Z,7.00
2018-06-14T14:20:52.041Z,7.50
2018-06-14T14:23:20.383Z,6.17
2018-06-14T14:25:48.700Z,9.13
2018-06-14T14:28:17.008Z,7.07
2018-06-14T14:30:45.334Z,7.07
2018-06-14T14:33:13.660Z,6.73
2018-06-14T14:35:41.940Z,7.80
2018-06-14T14:38:10.268Z,8.53
2018-06-14T14:40:38.595Z,8.80
2018-06-14T14:43:06.917Z,8.10
2018-06-14T14:45:35.233Z,8.47
2018-06-14T14:48:03.583Z,10.10
2018-06-14T14:50:31.917Z,8.47
2018-06-14T14:53:00.280Z,9.37
2018-06-14T14:55:28.617Z,8.20
2018-06-14T14:57:57.107Z,8.47
2018-06-14T15:00:25.485Z,8.37
2018-06-14T15:02:53.820Z,8.77
2018-06-14T15:05:22.173Z,9.23
2018-06-14T15:07:50.458Z,10.97
2018-06-14T15:10:18.843Z,9.13
2018-06-14T15:12:47.181Z,10.17
2018-06-14T15:15:15.577Z,10.17
2018-06-14T15:17:43.975Z,12.10
2018-06-14T15:20:12.331Z,10.50
2018-06-14T15:22:40.664Z,9.93
2018-06-14T15:25:09.005Z,10.50
2018-06-14T15:27:37.285Z,10.87
2018-06-14T15:30:05.625Z,11.27
2018-06-14T15:32:33.943Z,12.03
2018-06-14T15:35:02.273Z,11.37
2018-06-14T15:37:30.736Z,12.37
2018-06-14T15:40:02.601Z,12.43
2018-06-14T15:42:30.963Z,11.90
2018-06-14T15:44:59.321Z,11.93
2018-06-14T15:47:27.736Z,13.63
2018-06-14T15:49:56.080Z,12.47
2018-06-14T15:52:24.434Z,12.50
2018-06-14T15:55:04.157Z,14.47
2018-06-14T15:57:32.514Z,13.87
2018-06-14T16:00:00.911Z,13.07
2018-06-14T16:02:29.259Z,13.87
2018-06-14T16:04:57.593Z,13.07
2018-06-14T16:07:25.912Z,13.50
2018-06-14T16:09:54.265Z,16.90
2018-06-14T16:12:22.601Z,12.80
2018-06-14T16:14:50.951Z,12.73
2018-06-14T16:17:19.050Z,13.77
2018-06-14T16:19:47.423Z,12.80
2018-06-14T16:22:15.755Z,13.63
2018-06-14T16:24:44.115Z,14.80
2018-06-14T16:27:12.429Z,14.03
2018-06-14T16:29:40.767Z,13.37
2018-06-14T16:32:09.115Z,16.47
2018-06-14T16:34:37.497Z,14.87
2018-06-14T16:37:05.843Z,15.27
2018-06-14T16:39:34.193Z,13.60
2018-06-14T16:42:02.545Z,13.13
2018-06-14T16:44:30.863Z,13.80
2018-06-14T16:46:59.192Z,13.37
2018-06-14T16:49:27.518Z,13.93
2018-06-14T16:51:55.852Z,14.17
2018-06-14T16:54:24.173Z,14.17
2018-06-14T16:56:52.549Z,15.20
2018-06-14T16:59:20.924Z,14.07
2018-06-14T17:01:49.265Z,13.43
2018-06-14T17:04:17.608Z,13.33
2018-06-14T17:06:45.933Z,14.47
2018-06-14T17:09:14.313Z,14.03
2018-06-14T17:11:42.655Z,13.00
2018-06-14T17:14:10.984Z,13.20
2018-06-14T17:16:39.285Z,13.10
2018-06-14T17:19:07.493Z,13.97
2018-06-14T17:21:35.812Z,14.27
2018-06-14T17:24:04.152Z,13.93
2018-06-14T17:26:32.464Z,14.23
2018-06-14T17:29:00.856Z,16.07
2018-06-14T17:31:29.173Z,14.30
2018-06-14T17:33:57.483Z,14.03
2018-06-14T17:36:25.766Z,14.37
2018-06-14T17:38:54.078Z,13.03
2018-06-14T17:41:22.454Z,13.30
2018-06-14T17:43:50.773Z,13.60
2018-06-14T17:46:19.127Z,13.50
2018-06-14T17:48:47.487Z,13.60
2018-06-14T17:51:19.215Z,13.47
2018-06-14T17:53:47.584Z,13.40
2018-06-14T17:56:15.559Z,12.40
2018-06-14T17:58:43.877Z,13.90
2018-06-14T18:01:12.221Z,14.07
2018-06-14T18:03:41.157Z,13.80
2018-06-14T18:06:09.471Z,14.43
2018-06-14T18:08:37.825Z,14.20
2018-06-14T18:11:06.134Z,13.43
2018-06-14T18:13:34.465Z,14.57
2018-06-14T18:16:02.747Z,14.00
2018-06-14T18:18:31.074Z,14.37
2018-06-14T18:20:59.623Z,13.53
2018-06-14T18:23:27.933Z,12.90
2018-06-14T18:25:56.248Z,13.90
2018-06-14T18:28:24.589Z,13.17
2018-06-14T18:30:52.909Z,13.03
2018-06-14T18:33:21.238Z,13.43
2018-06-14T18:35:49.563Z,12.90
2018-06-14T18:38:17.877Z,13.83
2018-06-14T18:40:46.184Z,12.37
2018-06-14T18:43:14.277Z,13.37
2018-06-14T18:45:42.494Z,13.57
2018-06-14T18:48:11.125Z,13.27
2018-06-14T18:50:39.519Z,13.13
2018-06-14T18:53:08.451Z,12.97
2018-06-14T18:55:36.819Z,13.67
2018-06-14T18:58:05.464Z,12.80
2018-06-14T19:00:33.964Z,13.60
2018-06-14T19:03:02.974Z,14.20
2018-06-14T19:05:31.887Z,13.37
2018-06-14T19:08:00.773Z,13.13
2018-06-14T19:10:29.701Z,12.80
2018-06-14T19:12:58.673Z,13.37
2018-06-14T19:15:27.611Z,13.30
2018-06-14T19:17:56.494Z,13.13
2018-06-14T19:20:24.978Z,13.27
2018-06-14T19:22:53.759Z,12.83
2018-06-14T19:25:22.649Z,12.57
2018-06-14T19:27:51.435Z,12.37
2018-06-14T19:30:20.201Z,12.20
2018-06-14T19:32:49.095Z,13.03
2018-06-14T19:35:17.931Z,13.10
2018-06-14T19:37:46.447Z,12.47
2018-06-14T19:40:15.329Z,12.30
2018-06-14T19:42:44.177Z,12.77
2018-06-14T19:45:12.759Z,13.00
2018-06-14T19:47:41.066Z,12.77
2018-06-14T19:50:09.387Z,13.03
2018-06-14T19:52:37.434Z,13.53
2018-06-14T19:55:05.744Z,12.97
2018-06-14T19:57:34.231Z,13.70
2018-06-14T20:00:02.615Z,14.50
2018-06-14T20:02:30.935Z,13.50
2018-06-14T20:04:59.354Z,14.63
2018-06-14T20:07:28.355Z,14.77
2018-06-14T20:09:57.103Z,13.73
2018-06-14T20:12:25.681Z,13.80
2018-06-14T20:14:54.278Z,14.20
2018-06-14T20:17:22.794Z,13.73
2018-06-14T20:19:51.665Z,14.90
2018-06-14T20:22:20.197Z,15.43
2018-06-14T20:24:48.737Z,14.27
2018-06-14T20:27:17.323Z,13.93
2018-06-14T20:29:45.858Z,15.27
2018-06-14T20:32:14.407Z,15.33
2018-06-14T20:34:42.959Z,15.10
2018-06-14T20:37:11.461Z,14.67
2018-06-14T20:39:40.494Z,13.83
2018-06-14T20:42:08.901Z,15.07
2018-06-14T20:44:37.209Z,13.60
2018-06-14T20:47:05.529Z,14.27
2018-06-14T20:49:33.843Z,15.53
2018-06-14T20:52:02.173Z,15.07
2018-06-14T20:54:30.470Z,15.47
2018-06-14T20:56:58.772Z,15.87
2018-06-14T20:59:26.980Z,16.83
2018-06-14T21:01:55.288Z,17.03
2018-06-14T21:04:23.676Z,17.07
2018-06-14T21:06:51.960Z,16.77
2018-06-14T21:09:20.339Z,17.17
2018-06-14T21:11:48.670Z,16.40
2018-06-14T21:14:16.990Z,17.00
2018-06-14T21:16:45.356Z,17.37
2018-06-14T21:19:13.674Z,18.00
2018-06-14T21:21:42.031Z,18.50
2018-06-14T21:24:10.332Z,18.63
2018-06-14T21:26:38.640Z,19.47
2018-06-14T21:29:07.036Z,19.57
2018-06-14T21:31:35.419Z,19.90
2018-06-14T21:34:03.764Z,21.53
2018-06-14T21:36:32.091Z,20.47
2018-06-14T21:39:00.420Z,20.50
2018-06-14T21:41:28.743Z,20.37
2018-06-14T21:43:57.082Z,22.00
2018-06-14T21:46:25.420Z,21.13
2018-06-14T21:48:54.227Z,21.30
2018-06-14T21:51:22.287Z,20.57
2018-06-14T21:53:50.595Z,21.33
2018-06-14T21:56:18.901Z,22.83
2018-06-14T21:58:47.247Z,22.37
2018-06-14T22:01:15.525Z,23.13
2018-06-14T22:03:49.291Z,23.20
2018-06-14T22:06:17.585Z,22.90
2018-06-14T22:08:45.889Z,23.70
2018-06-14T22:11:14.215Z,22.43
2018-06-14T22:13:42.253Z,23.30
2018-06-14T22:16:10.571Z,24.30
2018-06-14T22:18:38.943Z,23.27
2018-06-14T22:21:07.467Z,23.00
2018-06-14T22:23:35.785Z,23.63
2018-06-14T22:26:04.125Z,25.20
2018-06-14T22:28:34.147Z,23.53
2018-06-14T22:31:02.499Z,23.70
2018-06-14T22:33:42.079Z,24.20
2018-06-14T22:36:10.417Z,24.67
2018-06-14T22:38:38.748Z,24.30
2018-06-14T22:41:07.084Z,23.03
2018-06-14T22:43:35.422Z,24.57
2018-06-14T22:46:03.710Z,25.20
2018-06-14T22:48:32.013Z,25.37
2018-06-14T22:51:12.872Z,23.80
2018-06-14T22:53:41.167Z,25.73
2018-06-14T22:56:09.461Z,24.77
2018-06-14T22:58:37.762Z,24.70
2018-06-14T23:01:46.350Z,26.60
2018-06-14T23:04:16.184Z,26.07
2018-06-14T23:06:44.467Z,26.77
2018-06-14T23:10:26.714Z,26.67
2018-06-14T23:12:55.054Z,28.83
2018-06-14T23:15:23.362Z,30.30
2018-06-14T23:17:52.126Z,27.87
2018-06-14T23:20:22.354Z,27.50
2018-06-14T23:22:51.971Z,27.77
2018-06-14T23:25:21.198Z,27.13
2018-06-14T23:27:49.518Z,27.83
2018-06-14T23:30:18.104Z,27.67
2018-06-14T23:32:46.495Z,28.30
2018-06-14T23:35:14.602Z,28.93
2018-06-14T23:37:42.903Z,28.40
2018-06-14T23:40:11.174Z,29.40
2018-06-14T23:42:39.566Z,28.60
2018-06-14T23:45:07.894Z,28.93
2018-06-14T23:47:36.231Z,29.83
2018-06-14T23:50:04.716Z,29.93
2018-06-14T23:52:33.032Z,30.33
2018-06-14T23:55:01.336Z,29.87
2018-06-14T23:57:29.625Z,29.23
2018-06-14T23:59:57.930Z,30.47
